Ruth, Nevada
Current Conditions -  °F | °C
As of 5:53 AM on Saturday 25 Oct 2014 (Local Time) from KELY Reporting Station
Clear Clear  
Wind Chill: 35°   Ceiling: Unl
Heat Index: 42°   Visibility: 10mi
Dew Point: 28°   Wind: 13mph
Humidity: 58%   Direction: 180°S
Pressure: 30.14"   Gusts: NA
Location:  39.28°N, 114.99°W
Report Text: KELY 251253Z AUTO 18011KT 10SM CLR 06/M02 A3014 RMK AO2 SLP150 T00561022
Loading
Personal Weather Stations






























Interactive Weather Map New forecast layout! Learn more

10-Day Weather Forecast

Advertisements
Track Severe Weather on mobile